createdAt,value
2019-02-26T00:01:59.931Z,36.40
2019-02-26T00:07:01.628Z,40.23
2019-02-26T00:12:06.448Z,37.50
2019-02-26T00:17:13.041Z,41.27
2019-02-26T00:22:16.579Z,37.47
2019-02-26T00:27:19.594Z,39.23
2019-02-26T00:32:27.134Z,43.30
2019-02-26T00:37:31.368Z,35.30
2019-02-26T00:42:36.159Z,37.40
2019-02-26T00:47:39.545Z,43.33
2019-02-26T00:52:43.548Z,47.30
2019-02-26T00:57:45.560Z,35.27
2019-02-26T01:02:48.897Z,35.83
2019-02-26T01:07:52.564Z,37.77
2019-02-26T01:12:56.494Z,34.53
2019-02-26T01:18:01.428Z,34.93
2019-02-26T01:23:03.344Z,43.00
2019-02-26T01:28:08.384Z,43.50
2019-02-26T01:33:10.598Z,39.10
2019-02-26T01:38:14.836Z,42.70
2019-02-26T01:43:20.033Z,36.70
2019-02-26T01:48:24.301Z,31.87
2019-02-26T01:53:28.426Z,31.83
2019-02-26T01:58:33.481Z,31.93
2019-02-26T02:03:35.739Z,37.60
2019-02-26T02:08:41.305Z,41.23
2019-02-26T02:13:43.777Z,41.83
2019-02-26T02:18:48.080Z,40.50
2019-02-26T02:23:50.901Z,41.63
2019-02-26T02:28:56.506Z,37.90
2019-02-26T02:34:00.264Z,39.87
2019-02-26T02:39:02.303Z,43.23
2019-02-26T02:44:07.524Z,40.60
2019-02-26T02:49:10.399Z,37.93
2019-02-26T02:54:20.853Z,42.40
2019-02-26T02:59:22.318Z,35.13
2019-02-26T03:04:31.118Z,44.53
2019-02-26T03:09:43.231Z,38.30
2019-02-26T03:14:51.069Z,40.43
2019-02-26T03:19:55.860Z,36.97
2019-02-26T03:24:59.531Z,42.73
2019-02-26T03:30:06.943Z,41.17
2019-02-26T03:35:10.254Z,44.37
2019-02-26T03:40:17.308Z,44.00
2019-02-26T03:45:24.794Z,39.70
2019-02-26T03:50:28.688Z,42.70
2019-02-26T03:55:33.357Z,38.23
2019-02-26T04:00:37.636Z,41.93
2019-02-26T04:05:39.192Z,39.07
2019-02-26T04:10:41.379Z,41.53
2019-02-26T04:15:43.695Z,40.53
2019-02-26T04:20:45.815Z,40.27
2019-02-26T04:26:34.427Z,43.07
2019-02-26T04:32:23.559Z,44.53
2019-02-26T04:38:26.687Z,43.33
2019-02-26T04:44:31.348Z,44.90
2019-02-26T04:49:36.194Z,45.20
2019-02-26T04:54:39.858Z,41.13
2019-02-26T04:59:43.924Z,41.67
2019-02-26T05:04:52.648Z,42.83
2019-02-26T05:09:56.904Z,44.97
2019-02-26T05:15:00.760Z,41.53
2019-02-26T05:20:07.295Z,39.50
2019-02-26T05:25:17.049Z,46.67
2019-02-26T05:30:21.723Z,46.73
2019-02-26T05:35:25.276Z,37.87
2019-02-26T05:40:30.472Z,45.07
2019-02-26T05:45:35.759Z,43.07
2019-02-26T05:50:38.462Z,48.87
2019-02-26T05:55:47.782Z,44.53
2019-02-26T06:00:49.818Z,47.70
2019-02-26T06:05:54.933Z,51.47
2019-02-26T06:11:00.173Z,45.93
2019-02-26T06:16:04.790Z,45.00
2019-02-26T06:21:10.233Z,47.80
2019-02-26T06:26:17.859Z,45.37
2019-02-26T06:31:22.090Z,50.13
2019-02-26T06:36:25.781Z,47.57
2019-02-26T06:41:32.084Z,44.13
2019-02-26T06:46:35.915Z,50.17
2019-02-26T06:51:40.483Z,45.07
2019-02-26T06:56:46.121Z,44.60
2019-02-26T07:01:55.582Z,41.80
2019-02-26T07:07:04.439Z,42.93
2019-02-26T07:12:08.745Z,46.97
2019-02-26T07:17:13.681Z,42.73
2019-02-26T07:22:16.488Z,46.07
2019-02-26T07:27:22.911Z,49.00
2019-02-26T07:32:28.920Z,50.60
2019-02-26T07:37:33.266Z,46.53
2019-02-26T07:42:37.281Z,45.77
2019-02-26T07:47:41.142Z,55.87
2019-02-26T07:52:51.665Z,66.17
2019-02-26T07:57:53.389Z,74.27
2019-02-26T08:02:58.023Z,67.80
2019-02-26T08:08:00.863Z,68.40
2019-02-26T08:13:03.900Z,59.63
2019-02-26T08:18:09.504Z,51.60
2019-02-26T08:23:19.896Z,57.80
2019-02-26T08:28:24.824Z,51.97
2019-02-26T08:33:27.929Z,46.80
2019-02-26T08:38:30.310Z,43.87
2019-02-26T08:43:34.201Z,45.43
2019-02-26T08:48:36.286Z,42.57
2019-02-26T08:53:41.094Z,42.27
2019-02-26T08:58:45.355Z,42.47
2019-02-26T09:03:50.690Z,45.33
2019-02-26T09:08:55.155Z,39.70
2019-02-26T09:13:59.394Z,43.33
2019-02-26T09:19:01.654Z,43.20
2019-02-26T09:24:05.406Z,43.57
2019-02-26T09:29:12.572Z,47.33
2019-02-26T09:34:16.984Z,50.37
2019-02-26T09:39:22.946Z,43.60
2019-02-26T09:44:28.638Z,45.10
2019-02-26T09:49:33.147Z,47.47
2019-02-26T09:54:40.453Z,45.83
2019-02-26T09:59:39.988Z,52.47
2019-02-26T10:04:45.515Z,53.13
2019-02-26T10:09:48.580Z,45.77
2019-02-26T10:14:52.297Z,45.73
2019-02-26T10:19:59.353Z,45.23
2019-02-26T10:25:04.627Z,47.90
2019-02-26T10:30:11.293Z,50.97
2019-02-26T10:35:18.042Z,44.70
2019-02-26T10:40:19.713Z,40.80
2019-02-26T10:45:23.683Z,42.70
2019-02-26T10:50:31.130Z,40.73
2019-02-26T10:55:38.410Z,41.07
2019-02-26T11:00:38.147Z,44.27
2019-02-26T11:05:45.037Z,50.67
2019-02-26T11:10:52.194Z,39.47
2019-02-26T11:15:56.594Z,41.27
2019-02-26T11:21:00.840Z,38.13
2019-02-26T11:26:06.113Z,40.33
2019-02-26T11:31:14.042Z,38.57
2019-02-26T11:36:16.805Z,37.97
2019-02-26T11:41:18.960Z,41.57
2019-02-26T11:46:23.094Z,37.80
2019-02-26T11:51:24.946Z,34.27
2019-02-26T11:56:29.028Z,36.43
2019-02-26T12:01:32.237Z,31.13
2019-02-26T12:06:42.410Z,33.07
2019-02-26T12:11:44.621Z,28.50
2019-02-26T12:16:46.745Z,30.70
2019-02-26T12:21:49.513Z,26.47
2019-02-26T12:26:57.287Z,26.97
2019-02-26T12:32:04.578Z,26.67
2019-02-26T12:37:11.163Z,23.57
2019-02-26T12:42:18.474Z,25.03
2019-02-26T12:47:24.471Z,23.83
2019-02-26T12:52:26.915Z,23.67
2019-02-26T12:57:29.659Z,19.07
2019-02-26T13:02:36.924Z,23.30
2019-02-26T13:07:38.362Z,22.63
2019-02-26T13:12:47.133Z,16.30
2019-02-26T13:17:52.370Z,14.93
2019-02-26T13:23:00.594Z,17.87
2019-02-26T13:27:59.860Z,14.00
2019-02-26T13:33:05.239Z,13.77
2019-02-26T13:38:09.170Z,13.10
2019-02-26T13:43:13.931Z,15.37
2019-02-26T13:48:19.728Z,16.23
2019-02-26T13:53:26.575Z,19.53
2019-02-26T13:58:34.036Z,17.90
2019-02-26T14:03:39.210Z,19.30
2019-02-26T14:08:41.278Z,17.77
2019-02-26T14:13:43.314Z,15.57
2019-02-26T14:18:48.267Z,17.07
2019-02-26T14:23:52.788Z,14.83
2019-02-26T14:28:56.294Z,11.60
2019-02-26T14:34:00.141Z,15.27
2019-02-26T14:39:04.089Z,18.63
2019-02-26T14:44:06.145Z,18.70
2019-02-26T14:49:08.206Z,20.63
2019-02-26T14:54:10.501Z,22.33
2019-02-26T14:59:12.586Z,28.57
2019-02-26T15:04:14.860Z,30.83
2019-02-26T15:09:18.791Z,31.40
2019-02-26T15:14:23.917Z,26.33
2019-02-26T15:19:30.437Z,25.27
2019-02-26T15:24:40.695Z,28.70
2019-02-26T15:29:42.835Z,29.77
2019-02-26T15:34:45.103Z,25.30
2019-02-26T15:39:47.146Z,26.87
2019-02-26T15:44:49.178Z,27.37
2019-02-26T15:49:56.168Z,29.70
2019-02-26T15:55:01.034Z,27.13
2019-02-26T16:00:06.186Z,29.33
2019-02-26T16:05:11.019Z,26.50
2019-02-26T16:10:13.445Z,26.90
2019-02-26T16:15:17.528Z,28.37
2019-02-26T16:20:21.550Z,28.17
2019-02-26T16:25:26.781Z,24.60
2019-02-26T16:30:30.598Z,27.93
2019-02-26T16:35:37.258Z,32.20
2019-02-26T16:40:39.317Z,32.23
2019-02-26T16:45:45.761Z,27.57
2019-02-26T16:50:52.311Z,28.67
2019-02-26T16:55:54.681Z,29.90
2019-02-26T17:00:56.707Z,25.40
2019-02-26T17:05:59.156Z,29.67
2019-02-26T17:11:01.219Z,29.73
2019-02-26T17:16:05.745Z,26.63
2019-02-26T17:21:07.818Z,29.80
2019-02-26T17:26:09.920Z,32.13
2019-02-26T17:31:11.929Z,28.60
2019-02-26T17:36:20.861Z,35.97
2019-02-26T17:41:25.786Z,28.97
2019-02-26T17:46:28.101Z,33.05
2019-02-26T17:51:34.096Z,35.10
2019-02-26T17:56:39.154Z,49.57
2019-02-26T18:01:44.456Z,58.00
2019-02-26T18:06:46.512Z,63.07
2019-02-26T18:11:48.937Z,52.10
2019-02-26T18:16:51.132Z,39.50
2019-02-26T18:21:59.186Z,49.30
2019-02-26T18:27:03.682Z,42.53
2019-02-26T18:32:05.762Z,49.83
2019-02-26T18:37:07.880Z,46.43
2019-02-26T18:42:09.895Z,41.23
2019-02-26T18:47:14.013Z,40.30
2019-02-26T18:52:16.635Z,44.40
2019-02-26T18:57:22.690Z,45.93
2019-02-26T19:02:26.311Z,47.40
2019-02-26T19:07:33.105Z,46.50
2019-02-26T19:12:33.917Z,45.13
2019-02-26T19:17:36.088Z,33.10
2019-02-26T19:22:43.211Z,40.00
2019-02-26T19:27:45.343Z,36.90
2019-02-26T19:32:48.300Z,37.77
2019-02-26T19:37:57.124Z,40.87
2019-02-26T19:42:59.520Z,36.47
2019-02-26T19:48:01.629Z,46.33
2019-02-26T19:53:06.006Z,40.53
2019-02-26T19:58:09.711Z,38.47
2019-02-26T20:03:13.139Z,36.97
2019-02-26T20:08:17.837Z,38.77
2019-02-26T20:13:19.910Z,38.47
2019-02-26T20:18:25.843Z,37.17
2019-02-26T20:23:27.306Z,37.60
2019-02-26T20:28:29.325Z,41.90
2019-02-26T20:33:31.621Z,44.60
2019-02-26T20:38:35.289Z,39.77
2019-02-26T20:43:39.799Z,40.27
2019-02-26T20:48:41.818Z,47.33
2019-02-26T20:53:44.509Z,38.50
2019-02-26T20:58:46.698Z,42.20
2019-02-26T21:03:49.895Z,42.67
2019-02-26T21:08:53.319Z,46.40
2019-02-26T21:13:58.949Z,48.03
2019-02-26T21:19:02.873Z,45.17
2019-02-26T21:24:08.997Z,46.20
2019-02-26T21:29:15.715Z,45.00
2019-02-26T21:36:36.613Z,53.43
2019-02-26T21:41:40.775Z,49.80
2019-02-26T21:46:43.033Z,44.17
2019-02-26T21:51:47.803Z,45.63
2019-02-26T21:56:51.877Z,48.87
2019-02-26T22:01:53.988Z,51.87
2019-02-26T22:06:56.191Z,52.37
2019-02-26T22:11:58.462Z,50.10
2019-02-26T22:17:00.817Z,46.77
2019-02-26T22:22:05.298Z,54.13
2019-02-26T22:27:13.453Z,49.47
2019-02-26T22:32:21.762Z,44.33
2019-02-26T22:37:25.996Z,52.60
2019-02-26T22:42:28.139Z,45.50
2019-02-26T22:47:30.142Z,54.63
2019-02-26T22:52:35.199Z,47.13
2019-02-26T22:57:37.221Z,52.60
2019-02-26T23:02:40.819Z,52.23
2019-02-26T23:07:46.452Z,44.50
2019-02-26T23:12:48.630Z,52.20
2019-02-26T23:17:58.208Z,51.50
2019-02-26T23:22:57.820Z,51.33
2019-02-26T23:27:59.858Z,47.57
2019-02-26T23:33:07.853Z,57.03
2019-02-26T23:38:14.776Z,54.83
2019-02-26T23:43:18.892Z,56.40
2019-02-26T23:48:20.893Z,52.57
2019-02-26T23:53:22.961Z,50.17
2019-02-26T23:58:30.713Z,50.97
